sensor_id;sensor_type;location;lat;lon;timestamp;P1;durP1;ratioP1;P2;durP2;ratioP2
37845;SDS011;23686;49.828;8.702;2022-11-15T00:01:47;7.57;;;4.15;;
37845;SDS011;23686;49.828;8.702;2022-11-15T00:04:13;5.38;;;3.67;;
37845;SDS011;23686;49.828;8.702;2022-11-15T00:06:38;7.38;;;4.28;;
37845;SDS011;23686;49.828;8.702;2022-11-15T00:09:04;6.40;;;4.18;;
37845;SDS011;23686;49.828;8.702;2022-11-15T00:11:30;6.82;;;3.58;;
37845;SDS011;23686;49.828;8.702;2022-11-15T00:13:56;7.00;;;4.13;;
37845;SDS011;23686;49.828;8.702;2022-11-15T00:16:22;6.18;;;4.22;;
37845;SDS011;23686;49.828;8.702;2022-11-15T00:18:48;6.50;;;4.28;;
37845;SDS011;23686;49.828;8.702;2022-11-15T00:21:14;9.10;;;3.75;;
37845;SDS011;23686;49.828;8.702;2022-11-15T00:23:41;5.35;;;4.13;;
37845;SDS011;23686;49.828;8.702;2022-11-15T00:26:06;5.32;;;4.03;;
37845;SDS011;23686;49.828;8.702;2022-11-15T00:28:35;5.85;;;4.10;;
37845;SDS011;23686;49.828;8.702;2022-11-15T00:31:01;7.80;;;4.10;;
37845;SDS011;23686;49.828;8.702;2022-11-15T00:33:28;7.72;;;4.60;;
37845;SDS011;23686;49.828;8.702;2022-11-15T00:35:59;5.47;;;3.65;;
37845;SDS011;23686;49.828;8.702;2022-11-15T00:38:33;5.57;;;3.88;;
37845;SDS011;23686;49.828;8.702;2022-11-15T00:40:59;4.85;;;3.70;;
37845;SDS011;23686;49.828;8.702;2022-11-15T00:43:25;6.10;;;3.97;;
37845;SDS011;23686;49.828;8.702;2022-11-15T00:45:51;6.20;;;4.07;;
37845;SDS011;23686;49.828;8.702;2022-11-15T00:48:16;4.88;;;3.72;;
37845;SDS011;23686;49.828;8.702;2022-11-15T00:50:42;6.93;;;4.22;;
37845;SDS011;23686;49.828;8.702;2022-11-15T00:53:07;5.45;;;3.97;;
37845;SDS011;23686;49.828;8.702;2022-11-15T00:55:33;7.30;;;3.85;;
37845;SDS011;23686;49.828;8.702;2022-11-15T00:57:58;5.38;;;4.07;;
37845;SDS011;23686;49.828;8.702;2022-11-15T01:00:24;4.35;;;3.47;;
37845;SDS011;23686;49.828;8.702;2022-11-15T01:02:49;6.70;;;3.92;;
37845;SDS011;23686;49.828;8.702;2022-11-15T01:05:15;4.55;;;3.88;;
37845;SDS011;23686;49.828;8.702;2022-11-15T01:07:41;5.70;;;3.67;;
37845;SDS011;23686;49.828;8.702;2022-11-15T01:10:06;7.55;;;3.17;;
37845;SDS011;23686;49.828;8.702;2022-11-15T01:12:32;8.63;;;4.15;;
37845;SDS011;23686;49.828;8.702;2022-11-15T01:14:58;4.75;;;3.78;;
37845;SDS011;23686;49.828;8.702;2022-11-15T01:17:24;5.53;;;3.95;;
37845;SDS011;23686;49.828;8.702;2022-11-15T01:19:49;5.47;;;3.83;;
37845;SDS011;23686;49.828;8.702;2022-11-15T01:22:15;4.80;;;3.70;;
37845;SDS011;23686;49.828;8.702;2022-11-15T01:24:40;7.80;;;4.25;;
37845;SDS011;23686;49.828;8.702;2022-11-15T01:27:06;6.07;;;3.95;;
37845;SDS011;23686;49.828;8.702;2022-11-15T01:29:32;6.00;;;3.75;;
37845;SDS011;23686;49.828;8.702;2022-11-15T01:31:57;4.88;;;3.63;;
37845;SDS011;23686;49.828;8.702;2022-11-15T01:34:23;6.43;;;3.88;;
37845;SDS011;23686;49.828;8.702;2022-11-15T01:36:49;4.95;;;3.95;;
37845;SDS011;23686;49.828;8.702;2022-11-15T01:39:14;8.40;;;3.85;;
37845;SDS011;23686;49.828;8.702;2022-11-15T01:41:40;7.18;;;3.90;;
37845;SDS011;23686;49.828;8.702;2022-11-15T01:47:00;8.50;;;3.90;;
37845;SDS011;23686;49.828;8.702;2022-11-15T01:49:40;6.72;;;4.05;;
37845;SDS011;23686;49.828;8.702;2022-11-15T01:52:26;4.75;;;4.00;;
37845;SDS011;23686;49.828;8.702;2022-11-15T01:57:48;4.45;;;3.83;;
37845;SDS011;23686;49.828;8.702;2022-11-15T02:00:17;6.55;;;4.65;;
37845;SDS011;23686;49.828;8.702;2022-11-15T02:02:43;7.05;;;4.18;;
37845;SDS011;23686;49.828;8.702;2022-11-15T02:05:09;10.02;;;4.72;;
37845;SDS011;23686;49.828;8.702;2022-11-15T02:07:35;6.57;;;4.70;;
37845;SDS011;23686;49.828;8.702;2022-11-15T02:10:04;10.05;;;4.90;;
37845;SDS011;23686;49.828;8.702;2022-11-15T02:12:38;5.90;;;3.78;;
37845;SDS011;23686;49.828;8.702;2022-11-15T02:15:05;8.10;;;4.45;;
37845;SDS011;23686;49.828;8.702;2022-11-15T02:17:48;6.22;;;4.50;;
37845;SDS011;23686;49.828;8.702;2022-11-15T02:31:49;6.38;;;4.32;;
37845;SDS011;23686;49.828;8.702;2022-11-15T02:36:53;7.25;;;3.88;;
37845;SDS011;23686;49.828;8.702;2022-11-15T02:39:51;5.95;;;3.95;;
37845;SDS011;23686;49.828;8.702;2022-11-15T02:42:29;5.97;;;3.80;;
37845;SDS011;23686;49.828;8.702;2022-11-15T02:45:18;5.43;;;3.50;;
37845;SDS011;23686;49.828;8.702;2022-11-15T02:47:48;5.45;;;3.85;;
37845;SDS011;23686;49.828;8.702;2022-11-15T02:52:45;4.43;;;3.50;;
37845;SDS011;23686;49.828;8.702;2022-11-15T03:00:24;5.45;;;3.80;;
37845;SDS011;23686;49.828;8.702;2022-11-15T03:03:11;4.65;;;3.53;;
37845;SDS011;23686;49.828;8.702;2022-11-15T03:05:56;5.53;;;3.33;;
37845;SDS011;23686;49.828;8.702;2022-11-15T03:08:32;6.93;;;3.63;;
37845;SDS011;23686;49.828;8.702;2022-11-15T03:11:13;6.82;;;4.18;;
37845;SDS011;23686;49.828;8.702;2022-11-15T03:16:44;6.38;;;3.67;;
37845;SDS011;23686;49.828;8.702;2022-11-15T03:19:32;4.93;;;3.78;;
37845;SDS011;23686;49.828;8.702;2022-11-15T03:22:03;6.65;;;4.28;;
37845;SDS011;23686;49.828;8.702;2022-11-15T03:24:33;6.10;;;3.63;;
37845;SDS011;23686;49.828;8.702;2022-11-15T03:29:30;4.45;;;3.75;;
37845;SDS011;23686;49.828;8.702;2022-11-15T03:32:00;6.15;;;3.80;;
37845;SDS011;23686;49.828;8.702;2022-11-15T03:34:34;9.07;;;3.95;;
37845;SDS011;23686;49.828;8.702;2022-11-15T03:37:12;4.82;;;3.70;;
37845;SDS011;23686;49.828;8.702;2022-11-15T03:39:39;7.25;;;4.50;;
37845;SDS011;23686;49.828;8.702;2022-11-15T03:47:44;9.10;;;4.53;;
37845;SDS011;23686;49.828;8.702;2022-11-15T03:50:18;7.20;;;4.13;;
37845;SDS011;23686;49.828;8.702;2022-11-15T03:52:45;5.40;;;3.83;;
37845;SDS011;23686;49.828;8.702;2022-11-15T03:55:13;6.95;;;4.10;;
37845;SDS011;23686;49.828;8.702;2022-11-15T03:57:41;10.90;;;3.88;;
37845;SDS011;23686;49.828;8.702;2022-11-15T04:00:07;6.95;;;4.40;;
37845;SDS011;23686;49.828;8.702;2022-11-15T04:02:33;6.97;;;4.25;;
37845;SDS011;23686;49.828;8.702;2022-11-15T04:04:59;7.30;;;4.72;;
37845;SDS011;23686;49.828;8.702;2022-11-15T04:07:24;6.82;;;4.40;;
37845;SDS011;23686;49.828;8.702;2022-11-15T04:09:50;8.77;;;4.50;;
37845;SDS011;23686;49.828;8.702;2022-11-15T04:12:29;6.23;;;4.10;;
37845;SDS011;23686;49.828;8.702;2022-11-15T04:14:56;4.00;;;3.47;;
37845;SDS011;23686;49.828;8.702;2022-11-15T04:17:37;6.70;;;4.60;;
37845;SDS011;23686;49.828;8.702;2022-11-15T04:20:04;6.75;;;4.05;;
37845;SDS011;23686;49.828;8.702;2022-11-15T04:22:55;4.15;;;3.70;;
37845;SDS011;23686;49.828;8.702;2022-11-15T04:25:39;7.13;;;4.45;;
37845;SDS011;23686;49.828;8.702;2022-11-15T04:28:05;8.57;;;4.72;;
37845;SDS011;23686;49.828;8.702;2022-11-15T04:30:31;7.32;;;4.82;;
37845;SDS011;23686;49.828;8.702;2022-11-15T04:32:57;6.30;;;4.55;;
37845;SDS011;23686;49.828;8.702;2022-11-15T04:35:22;6.75;;;4.55;;
37845;SDS011;23686;49.828;8.702;2022-11-15T04:37:48;12.05;;;5.35;;
37845;SDS011;23686;49.828;8.702;2022-11-15T04:40:13;8.93;;;6.30;;
37845;SDS011;23686;49.828;8.702;2022-11-15T04:42:40;7.82;;;5.75;;
37845;SDS011;23686;49.828;8.702;2022-11-15T04:45:07;7.45;;;4.90;;
37845;SDS011;23686;49.828;8.702;2022-11-15T04:47:33;6.85;;;4.70;;
37845;SDS011;23686;49.828;8.702;2022-11-15T04:49:59;6.03;;;3.95;;
37845;SDS011;23686;49.828;8.702;2022-11-15T04:52:24;7.53;;;3.78;;
37845;SDS011;23686;49.828;8.702;2022-11-15T04:54:50;6.07;;;3.30;;
37845;SDS011;23686;49.828;8.702;2022-11-15T04:57:15;3.85;;;3.42;;
37845;SDS011;23686;49.828;8.702;2022-11-15T04:59:41;5.10;;;4.00;;
37845;SDS011;23686;49.828;8.702;2022-11-15T05:02:06;4.68;;;3.55;;
37845;SDS011;23686;49.828;8.702;2022-11-15T05:04:32;6.65;;;3.40;;
37845;SDS011;23686;49.828;8.702;2022-11-15T05:06:57;4.72;;;3.70;;
37845;SDS011;23686;49.828;8.702;2022-11-15T05:09:23;4.57;;;3.80;;
37845;SDS011;23686;49.828;8.702;2022-11-15T05:11:48;5.55;;;4.20;;
37845;SDS011;23686;49.828;8.702;2022-11-15T05:14:14;6.70;;;3.35;;
37845;SDS011;23686;49.828;8.702;2022-11-15T05:16:40;4.68;;;4.18;;
37845;SDS011;23686;49.828;8.702;2022-11-15T05:19:06;5.75;;;3.80;;
37845;SDS011;23686;49.828;8.702;2022-11-15T05:21:32;6.40;;;3.85;;
37845;SDS011;23686;49.828;8.702;2022-11-15T05:23:58;7.03;;;4.32;;
37845;SDS011;23686;49.828;8.702;2022-11-15T05:26:24;6.70;;;3.92;;
37845;SDS011;23686;49.828;8.702;2022-11-15T05:28:54;5.05;;;3.58;;
37845;SDS011;23686;49.828;8.702;2022-11-15T05:31:20;4.57;;;3.78;;
37845;SDS011;23686;49.828;8.702;2022-11-15T05:33:46;6.50;;;3.35;;
37845;SDS011;23686;49.828;8.702;2022-11-15T05:39:06;7.32;;;3.90;;
37845;SDS011;23686;49.828;8.702;2022-11-15T05:41:53;5.72;;;4.03;;
37845;SDS011;23686;49.828;8.702;2022-11-15T05:44:21;5.68;;;4.38;;
37845;SDS011;23686;49.828;8.702;2022-11-15T05:46:49;8.00;;;4.00;;
37845;SDS011;23686;49.828;8.702;2022-11-15T05:49:18;5.20;;;4.07;;
37845;SDS011;23686;49.828;8.702;2022-11-15T05:51:46;6.32;;;4.20;;
37845;SDS011;23686;49.828;8.702;2022-11-15T05:54:13;6.22;;;4.30;;
37845;SDS011;23686;49.828;8.702;2022-11-15T05:56:39;8.65;;;4.25;;
37845;SDS011;23686;49.828;8.702;2022-11-15T05:59:05;6.72;;;4.68;;
37845;SDS011;23686;49.828;8.702;2022-11-15T06:01:33;8.02;;;4.45;;
37845;SDS011;23686;49.828;8.702;2022-11-15T06:03:58;9.15;;;4.70;;
37845;SDS011;23686;49.828;8.702;2022-11-15T06:06:24;5.32;;;3.95;;
37845;SDS011;23686;49.828;8.702;2022-11-15T06:08:49;6.88;;;4.07;;
37845;SDS011;23686;49.828;8.702;2022-11-15T06:11:15;5.93;;;4.60;;
37845;SDS011;23686;49.828;8.702;2022-11-15T06:13:41;8.00;;;4.93;;
37845;SDS011;23686;49.828;8.702;2022-11-15T06:16:06;8.73;;;4.07;;
37845;SDS011;23686;49.828;8.702;2022-11-15T06:18:33;8.25;;;4.50;;
37845;SDS011;23686;49.828;8.702;2022-11-15T06:20:59;7.25;;;4.72;;
37845;SDS011;23686;49.828;8.702;2022-11-15T06:23:25;8.38;;;4.93;;
37845;SDS011;23686;49.828;8.702;2022-11-15T06:25:51;8.88;;;4.90;;
37845;SDS011;23686;49.828;8.702;2022-11-15T06:28:16;6.32;;;4.80;;
37845;SDS011;23686;49.828;8.702;2022-11-15T06:30:42;7.45;;;5.18;;
37845;SDS011;23686;49.828;8.702;2022-11-15T06:33:07;6.13;;;5.13;;
37845;SDS011;23686;49.828;8.702;2022-11-15T06:35:34;7.88;;;4.82;;
37845;SDS011;23686;49.828;8.702;2022-11-15T06:38:04;6.82;;;5.20;;
37845;SDS011;23686;49.828;8.702;2022-11-15T06:40:33;7.93;;;4.95;;
37845;SDS011;23686;49.828;8.702;2022-11-15T06:43:00;8.98;;;5.20;;
37845;SDS011;23686;49.828;8.702;2022-11-15T06:45:26;8.38;;;5.32;;
37845;SDS011;23686;49.828;8.702;2022-11-15T06:47:52;8.23;;;5.10;;
37845;SDS011;23686;49.828;8.702;2022-11-15T06:50:18;14.65;;;6.32;;
37845;SDS011;23686;49.828;8.702;2022-11-15T06:52:43;14.88;;;6.50;;
37845;SDS011;23686;49.828;8.702;2022-11-15T06:55:09;22.25;;;6.47;;
37845;SDS011;23686;49.828;8.702;2022-11-15T06:57:35;12.45;;;5.55;;
37845;SDS011;23686;49.828;8.702;2022-11-15T07:00:02;12.07;;;5.20;;
37845;SDS011;23686;49.828;8.702;2022-11-15T07:02:29;13.82;;;6.50;;
37845;SDS011;23686;49.828;8.702;2022-11-15T07:04:54;8.43;;;4.93;;
37845;SDS011;23686;49.828;8.702;2022-11-15T07:07:20;9.45;;;5.40;;
37845;SDS011;23686;49.828;8.702;2022-11-15T07:09:45;7.82;;;5.80;;
37845;SDS011;23686;49.828;8.702;2022-11-15T07:12:11;13.77;;;8.30;;
37845;SDS011;23686;49.828;8.702;2022-11-15T07:14:36;15.85;;;8.30;;
37845;SDS011;23686;49.828;8.702;2022-11-15T07:17:05;87.20;;;14.80;;
37845;SDS011;23686;49.828;8.702;2022-11-15T07:19:30;62.47;;;11.80;;
37845;SDS011;23686;49.828;8.702;2022-11-15T07:21:56;23.90;;;7.78;;
37845;SDS011;23686;49.828;8.702;2022-11-15T07:24:22;13.68;;;5.53;;
37845;SDS011;23686;49.828;8.702;2022-11-15T07:26:47;8.57;;;5.22;;
37845;SDS011;23686;49.828;8.702;2022-11-15T07:29:13;9.15;;;5.43;;
37845;SDS011;23686;49.828;8.702;2022-11-15T07:31:38;11.40;;;6.20;;
37845;SDS011;23686;49.828;8.702;2022-11-15T07:34:04;12.07;;;6.18;;
37845;SDS011;23686;49.828;8.702;2022-11-15T07:36:30;7.80;;;5.20;;
37845;SDS011;23686;49.828;8.702;2022-11-15T07:38:55;10.23;;;5.47;;
37845;SDS011;23686;49.828;8.702;2022-11-15T07:41:21;8.95;;;5.28;;
37845;SDS011;23686;49.828;8.702;2022-11-15T07:43:46;9.88;;;5.00;;
37845;SDS011;23686;49.828;8.702;2022-11-15T07:46:15;8.50;;;5.20;;
37845;SDS011;23686;49.828;8.702;2022-11-15T07:48:41;9.13;;;4.85;;
37845;SDS011;23686;49.828;8.702;2022-11-15T07:51:06;6.35;;;4.40;;
37845;SDS011;23686;49.828;8.702;2022-11-15T07:53:35;10.07;;;4.32;;
37845;SDS011;23686;49.828;8.702;2022-11-15T07:56:00;7.32;;;4.45;;
37845;SDS011;23686;49.828;8.702;2022-11-15T07:58:26;10.35;;;4.97;;
37845;SDS011;23686;49.828;8.702;2022-11-15T08:00:51;8.38;;;5.78;;
37845;SDS011;23686;49.828;8.702;2022-11-15T08:03:17;8.45;;;5.78;;
37845;SDS011;23686;49.828;8.702;2022-11-15T08:05:42;8.05;;;5.43;;
37845;SDS011;23686;49.828;8.702;2022-11-15T08:08:14;10.30;;;5.93;;
37845;SDS011;23686;49.828;8.702;2022-11-15T08:10:40;7.43;;;6.05;;
37845;SDS011;23686;49.828;8.702;2022-11-15T08:13:07;9.10;;;5.85;;
37845;SDS011;23686;49.828;8.702;2022-11-15T08:15:34;9.73;;;5.75;;
37845;SDS011;23686;49.828;8.702;2022-11-15T08:18:02;9.95;;;5.97;;
37845;SDS011;23686;49.828;8.702;2022-11-15T08:22:55;7.80;;;5.70;;
37845;SDS011;23686;49.828;8.702;2022-11-15T08:25:22;10.75;;;5.30;;
37845;SDS011;23686;49.828;8.702;2022-11-15T08:27:50;7.38;;;5.28;;
37845;SDS011;23686;49.828;8.702;2022-11-15T08:30:16;10.30;;;5.88;;
37845;SDS011;23686;49.828;8.702;2022-11-15T08:32:42;10.35;;;6.20;;
37845;SDS011;23686;49.828;8.702;2022-11-15T08:35:08;14.35;;;6.38;;
37845;SDS011;23686;49.828;8.702;2022-11-15T08:37:33;8.77;;;5.85;;
37845;SDS011;23686;49.828;8.702;2022-11-15T08:39:59;8.00;;;5.65;;
37845;SDS011;23686;49.828;8.702;2022-11-15T08:42:25;8.93;;;5.65;;
37845;SDS011;23686;49.828;8.702;2022-11-15T08:44:50;8.63;;;5.82;;
37845;SDS011;23686;49.828;8.702;2022-11-15T08:47:16;9.82;;;6.22;;
37845;SDS011;23686;49.828;8.702;2022-11-15T08:53:19;9.75;;;6.57;;
37845;SDS011;23686;49.828;8.702;2022-11-15T08:56:32;8.50;;;5.55;;
37845;SDS011;23686;49.828;8.702;2022-11-15T08:59:45;8.52;;;5.03;;
37845;SDS011;23686;49.828;8.702;2022-11-15T09:02:58;8.35;;;5.32;;
37845;SDS011;23686;49.828;8.702;2022-11-15T09:05:39;5.57;;;4.97;;
37845;SDS011;23686;49.828;8.702;2022-11-15T09:09:09;8.77;;;5.35;;
37845;SDS011;23686;49.828;8.702;2022-11-15T09:11:35;9.13;;;5.13;;
37845;SDS011;23686;49.828;8.702;2022-11-15T09:14:00;6.80;;;5.38;;
37845;SDS011;23686;49.828;8.702;2022-11-15T09:16:26;7.47;;;5.90;;
37845;SDS011;23686;49.828;8.702;2022-11-15T09:18:52;7.28;;;5.70;;
37845;SDS011;23686;49.828;8.702;2022-11-15T09:21:19;7.93;;;5.55;;
37845;SDS011;23686;49.828;8.702;2022-11-15T09:23:44;10.77;;;5.03;;
37845;SDS011;23686;49.828;8.702;2022-11-15T09:26:10;9.02;;;5.93;;
37845;SDS011;23686;49.828;8.702;2022-11-15T09:28:36;10.80;;;5.13;;
37845;SDS011;23686;49.828;8.702;2022-11-15T09:31:04;8.20;;;4.80;;
37845;SDS011;23686;49.828;8.702;2022-11-15T09:33:30;7.72;;;5.63;;
37845;SDS011;23686;49.828;8.702;2022-11-15T09:36:03;7.80;;;5.15;;
37845;SDS011;23686;49.828;8.702;2022-11-15T09:38:32;7.43;;;5.43;;
37845;SDS011;23686;49.828;8.702;2022-11-15T09:46:48;8.25;;;5.53;;
37845;SDS011;23686;49.828;8.702;2022-11-15T09:49:15;7.97;;;4.53;;
37845;SDS011;23686;49.828;8.702;2022-11-15T09:51:45;7.13;;;4.82;;
37845;SDS011;23686;49.828;8.702;2022-11-15T09:57:09;7.10;;;5.05;;
37845;SDS011;23686;49.828;8.702;2022-11-15T10:02:17;8.27;;;5.30;;
37845;SDS011;23686;49.828;8.702;2022-11-15T10:05:19;7.55;;;4.75;;
37845;SDS011;23686;49.828;8.702;2022-11-15T10:10:34;8.48;;;5.10;;
37845;SDS011;23686;49.828;8.702;2022-11-15T10:13:10;6.57;;;4.95;;
37845;SDS011;23686;49.828;8.702;2022-11-15T10:15:42;7.07;;;4.43;;
37845;SDS011;23686;49.828;8.702;2022-11-15T10:21:00;6.88;;;4.60;;
37845;SDS011;23686;49.828;8.702;2022-11-15T10:23:38;9.35;;;4.53;;
37845;SDS011;23686;49.828;8.702;2022-11-15T10:26:04;7.47;;;5.25;;
37845;SDS011;23686;49.828;8.702;2022-11-15T10:28:36;8.85;;;4.78;;
37845;SDS011;23686;49.828;8.702;2022-11-15T10:31:01;13.63;;;9.45;;
37845;SDS011;23686;49.828;8.702;2022-11-15T10:41:20;6.50;;;4.80;;
37845;SDS011;23686;49.828;8.702;2022-11-15T10:46:32;7.87;;;5.00;;
37845;SDS011;23686;49.828;8.702;2022-11-15T10:51:47;9.52;;;4.03;;
37845;SDS011;23686;49.828;8.702;2022-11-15T10:54:24;8.35;;;3.85;;
37845;SDS011;23686;49.828;8.702;2022-11-15T10:56:55;7.90;;;3.72;;
37845;SDS011;23686;49.828;8.702;2022-11-15T10:59:27;5.03;;;3.22;;
37845;SDS011;23686;49.828;8.702;2022-11-15T11:01:55;5.95;;;3.70;;
37845;SDS011;23686;49.828;8.702;2022-11-15T11:04:23;6.07;;;3.83;;
37845;SDS011;23686;49.828;8.702;2022-11-15T11:09:22;5.75;;;4.60;;
37845;SDS011;23686;49.828;8.702;2022-11-15T11:12:00;4.70;;;3.60;;
37845;SDS011;23686;49.828;8.702;2022-11-15T11:14:34;3.45;;;2.95;;
37845;SDS011;23686;49.828;8.702;2022-11-15T11:17:19;3.72;;;2.58;;
37845;SDS011;23686;49.828;8.702;2022-11-15T11:20:10;2.63;;;2.40;;
37845;SDS011;23686;49.828;8.702;2022-11-15T11:28:11;5.38;;;2.58;;
37845;SDS011;23686;49.828;8.702;2022-11-15T11:31:02;3.90;;;2.40;;
37845;SDS011;23686;49.828;8.702;2022-11-15T11:33:58;4.47;;;2.47;;
37845;SDS011;23686;49.828;8.702;2022-11-15T11:42:01;3.40;;;2.20;;
37845;SDS011;23686;49.828;8.702;2022-11-15T11:47:31;2.45;;;2.03;;
37845;SDS011;23686;49.828;8.702;2022-11-15T11:50:18;3.00;;;2.00;;
37845;SDS011;23686;49.828;8.702;2022-11-15T11:55:37;3.83;;;2.00;;
37845;SDS011;23686;49.828;8.702;2022-11-15T11:58:13;2.30;;;2.10;;
37845;SDS011;23686;49.828;8.702;2022-11-15T12:03:38;6.07;;;2.17;;
37845;SDS011;23686;49.828;8.702;2022-11-15T12:06:45;4.22;;;2.20;;
37845;SDS011;23686;49.828;8.702;2022-11-15T12:14:25;3.35;;;2.00;;
37845;SDS011;23686;49.828;8.702;2022-11-15T12:16:55;3.35;;;2.08;;
37845;SDS011;23686;49.828;8.702;2022-11-15T12:19:21;2.35;;;1.75;;
37845;SDS011;23686;49.828;8.702;2022-11-15T12:21:54;2.45;;;1.95;;
37845;SDS011;23686;49.828;8.702;2022-11-15T12:24:43;1.83;;;1.55;;
37845;SDS011;23686;49.828;8.702;2022-11-15T12:27:18;1.98;;;1.77;;
37845;SDS011;23686;49.828;8.702;2022-11-15T12:29:58;3.13;;;1.60;;
37845;SDS011;23686;49.828;8.702;2022-11-15T12:34:58;1.40;;;1.30;;
37845;SDS011;23686;49.828;8.702;2022-11-15T12:37:58;3.15;;;1.50;;
37845;SDS011;23686;49.828;8.702;2022-11-15T12:45:41;3.03;;;1.70;;
37845;SDS011;23686;49.828;8.702;2022-11-15T12:58:43;3.10;;;2.13;;
37845;SDS011;23686;49.828;8.702;2022-11-15T13:14:49;61.65;;;7.97;;
37845;SDS011;23686;49.828;8.702;2022-11-15T13:19:46;22.45;;;4.20;;
37845;SDS011;23686;49.828;8.702;2022-11-15T13:22:13;9.87;;;2.73;;
37845;SDS011;23686;49.828;8.702;2022-11-15T13:24:58;9.55;;;2.40;;
37845;SDS011;23686;49.828;8.702;2022-11-15T13:27:26;5.28;;;2.40;;
37845;SDS011;23686;49.828;8.702;2022-11-15T13:29:52;5.15;;;2.38;;
37845;SDS011;23686;49.828;8.702;2022-11-15T13:32:18;4.07;;;2.50;;
37845;SDS011;23686;49.828;8.702;2022-11-15T13:34:48;6.38;;;2.50;;
37845;SDS011;23686;49.828;8.702;2022-11-15T13:39:46;3.47;;;2.58;;
37845;SDS011;23686;49.828;8.702;2022-11-15T13:42:16;4.38;;;3.10;;
37845;SDS011;23686;49.828;8.702;2022-11-15T13:47:26;6.10;;;2.55;;
37845;SDS011;23686;49.828;8.702;2022-11-15T13:49:52;3.92;;;2.35;;
37845;SDS011;23686;49.828;8.702;2022-11-15T13:52:27;5.63;;;2.00;;
37845;SDS011;23686;49.828;8.702;2022-11-15T13:55:09;5.22;;;2.30;;
37845;SDS011;23686;49.828;8.702;2022-11-15T14:02:55;11.82;;;3.53;;
37845;SDS011;23686;49.828;8.702;2022-11-15T14:05:22;3.78;;;2.50;;
37845;SDS011;23686;49.828;8.702;2022-11-15T14:10:43;2.20;;;1.83;;
37845;SDS011;23686;49.828;8.702;2022-11-15T14:13:26;13.18;;;3.38;;
37845;SDS011;23686;49.828;8.702;2022-11-15T14:16:11;3.13;;;2.20;;
37845;SDS011;23686;49.828;8.702;2022-11-15T14:18:48;7.88;;;2.85;;
37845;SDS011;23686;49.828;8.702;2022-11-15T14:21:16;2.72;;;1.67;;
37845;SDS011;23686;49.828;8.702;2022-11-15T14:23:42;6.30;;;2.00;;
37845;SDS011;23686;49.828;8.702;2022-11-15T14:26:25;5.22;;;1.70;;
37845;SDS011;23686;49.828;8.702;2022-11-15T14:28:51;4.35;;;1.50;;
37845;SDS011;23686;49.828;8.702;2022-11-15T14:31:17;1.85;;;1.50;;
37845;SDS011;23686;49.828;8.702;2022-11-15T14:33:43;5.57;;;1.52;;
37845;SDS011;23686;49.828;8.702;2022-11-15T14:36:13;1.98;;;1.20;;
37845;SDS011;23686;49.828;8.702;2022-11-15T14:38:41;3.38;;;1.75;;
37845;SDS011;23686;49.828;8.702;2022-11-15T14:41:16;2.90;;;1.65;;
37845;SDS011;23686;49.828;8.702;2022-11-15T14:43:46;2.25;;;1.65;;
37845;SDS011;23686;49.828;8.702;2022-11-15T14:46:12;1.85;;;1.65;;
37845;SDS011;23686;49.828;8.702;2022-11-15T14:48:37;2.35;;;1.33;;
37845;SDS011;23686;49.828;8.702;2022-11-15T14:51:03;3.83;;;1.50;;
37845;SDS011;23686;49.828;8.702;2022-11-15T14:53:34;2.25;;;1.33;;
37845;SDS011;23686;49.828;8.702;2022-11-15T14:55:59;2.83;;;1.65;;
37845;SDS011;23686;49.828;8.702;2022-11-15T14:58:25;4.50;;;1.80;;
37845;SDS011;23686;49.828;8.702;2022-11-15T15:00:50;3.15;;;1.50;;
37845;SDS011;23686;49.828;8.702;2022-11-15T15:03:16;1.92;;;1.65;;
37845;SDS011;23686;49.828;8.702;2022-11-15T15:05:42;2.25;;;1.70;;
37845;SDS011;23686;49.828;8.702;2022-11-15T15:08:08;1.67;;;1.50;;
37845;SDS011;23686;49.828;8.702;2022-11-15T15:10:36;2.10;;;1.75;;
37845;SDS011;23686;49.828;8.702;2022-11-15T15:13:03;1.95;;;1.63;;
37845;SDS011;23686;49.828;8.702;2022-11-15T15:15:31;2.50;;;1.65;;
37845;SDS011;23686;49.828;8.702;2022-11-15T15:17:59;3.80;;;2.17;;
37845;SDS011;23686;49.828;8.702;2022-11-15T15:20:25;1.90;;;1.58;;
37845;SDS011;23686;49.828;8.702;2022-11-15T15:22:50;4.93;;;2.00;;
37845;SDS011;23686;49.828;8.702;2022-11-15T15:25:24;3.13;;;1.83;;
37845;SDS011;23686;49.828;8.702;2022-11-15T15:27:58;3.15;;;1.88;;
37845;SDS011;23686;49.828;8.702;2022-11-15T15:30:25;4.68;;;2.65;;
37845;SDS011;23686;49.828;8.702;2022-11-15T15:32:52;4.18;;;2.67;;
37845;SDS011;23686;49.828;8.702;2022-11-15T15:35:18;3.28;;;2.33;;
37845;SDS011;23686;49.828;8.702;2022-11-15T15:37:45;3.65;;;2.30;;
37845;SDS011;23686;49.828;8.702;2022-11-15T15:42:47;6.32;;;2.20;;
37845;SDS011;23686;49.828;8.702;2022-11-15T15:45:14;3.08;;;2.00;;
37845;SDS011;23686;49.828;8.702;2022-11-15T15:47:40;4.03;;;1.90;;
37845;SDS011;23686;49.828;8.702;2022-11-15T15:50:25;3.85;;;2.20;;
37845;SDS011;23686;49.828;8.702;2022-11-15T15:52:53;2.88;;;2.28;;
37845;SDS011;23686;49.828;8.702;2022-11-15T15:55:20;2.42;;;1.83;;
37845;SDS011;23686;49.828;8.702;2022-11-15T15:57:46;2.88;;;2.10;;
37845;SDS011;23686;49.828;8.702;2022-11-15T16:00:13;3.25;;;1.60;;
37845;SDS011;23686;49.828;8.702;2022-11-15T16:02:39;2.80;;;2.08;;
37845;SDS011;23686;49.828;8.702;2022-11-15T16:05:05;3.65;;;1.60;;
37845;SDS011;23686;49.828;8.702;2022-11-15T16:07:32;3.00;;;2.20;;
37845;SDS011;23686;49.828;8.702;2022-11-15T16:09:58;3.20;;;2.85;;
37845;SDS011;23686;49.828;8.702;2022-11-15T16:12:27;5.82;;;4.00;;
37845;SDS011;23686;49.828;8.702;2022-11-15T16:14:53;7.97;;;4.00;;
37845;SDS011;23686;49.828;8.702;2022-11-15T16:17:23;5.57;;;4.10;;
37845;SDS011;23686;49.828;8.702;2022-11-15T16:19:51;3.95;;;3.50;;
37845;SDS011;23686;49.828;8.702;2022-11-15T16:22:16;5.40;;;3.80;;
37845;SDS011;23686;49.828;8.702;2022-11-15T16:24:42;7.25;;;3.92;;
37845;SDS011;23686;49.828;8.702;2022-11-15T16:27:12;5.90;;;4.25;;
37845;SDS011;23686;49.828;8.702;2022-11-15T16:29:41;5.32;;;4.10;;
37845;SDS011;23686;49.828;8.702;2022-11-15T16:32:07;5.95;;;3.53;;
37845;SDS011;23686;49.828;8.702;2022-11-15T16:34:33;8.57;;;5.53;;
37845;SDS011;23686;49.828;8.702;2022-11-15T16:36:59;10.77;;;7.60;;
37845;SDS011;23686;49.828;8.702;2022-11-15T16:39:25;11.77;;;6.68;;
37845;SDS011;23686;49.828;8.702;2022-11-15T16:41:52;11.23;;;7.30;;
37845;SDS011;23686;49.828;8.702;2022-11-15T16:44:18;12.10;;;6.65;;
37845;SDS011;23686;49.828;8.702;2022-11-15T16:46:43;8.88;;;5.55;;
37845;SDS011;23686;49.828;8.702;2022-11-15T16:49:15;9.45;;;5.45;;
37845;SDS011;23686;49.828;8.702;2022-11-15T16:51:41;5.90;;;4.60;;
37845;SDS011;23686;49.828;8.702;2022-11-15T16:54:08;7.57;;;4.95;;
37845;SDS011;23686;49.828;8.702;2022-11-15T16:56:34;6.90;;;5.57;;
37845;SDS011;23686;49.828;8.702;2022-11-15T16:59:00;7.25;;;5.03;;
37845;SDS011;23686;49.828;8.702;2022-11-15T17:01:36;9.25;;;5.65;;
37845;SDS011;23686;49.828;8.702;2022-11-15T17:04:11;6.13;;;4.75;;
37845;SDS011;23686;49.828;8.702;2022-11-15T17:06:38;5.05;;;4.47;;
37845;SDS011;23686;49.828;8.702;2022-11-15T17:09:04;7.70;;;5.30;;
37845;SDS011;23686;49.828;8.702;2022-11-15T17:11:31;5.50;;;4.60;;
37845;SDS011;23686;49.828;8.702;2022-11-15T17:13:57;5.32;;;3.72;;
37845;SDS011;23686;49.828;8.702;2022-11-15T17:16:23;4.88;;;3.53;;
37845;SDS011;23686;49.828;8.702;2022-11-15T17:18:51;2.78;;;2.50;;
37845;SDS011;23686;49.828;8.702;2022-11-15T17:21:17;4.38;;;2.92;;
37845;SDS011;23686;49.828;8.702;2022-11-15T17:23:44;3.05;;;2.15;;
37845;SDS011;23686;49.828;8.702;2022-11-15T17:26:11;3.70;;;2.25;;
37845;SDS011;23686;49.828;8.702;2022-11-15T17:28:38;2.53;;;1.73;;
37845;SDS011;23686;49.828;8.702;2022-11-15T17:31:11;3.75;;;2.40;;
37845;SDS011;23686;49.828;8.702;2022-11-15T17:33:38;3.30;;;1.98;;
37845;SDS011;23686;49.828;8.702;2022-11-15T17:36:05;1.80;;;1.67;;